Time;durP1;ratioP1;P1;durP2;ratioP2;P2;SDS_P1;SDS_P2;PMS_P1;PMS_P2;Temp;Humidity;BMP_temperature;BMP_pressure;BME280_temperature;BME280_humidity;BME280_pressure;Samples;Min_cycle;Max_cycle;Signal;HPM_P1;HPM_P2
2022/01/29 00:01:42;;;;;;;1.33;0.47;;;-1.60;99.90;;;;;;4925963;29;20416;-87
2022/01/29 00:04:11;;;;;;;0.50;0.40;;;-1.60;99.90;;;;;;4912639;29;20395;-88
2022/01/29 00:06:38;;;;;;;0.80;0.40;;;-1.60;99.90;;;;;;4911763;28;20420;-88
2022/01/29 00:09:08;;;;;;;0.88;0.57;;;-1.60;99.90;;;;;;4927823;28;20766;-88
2022/01/29 00:11:36;;;;;;;0.57;0.47;;;-1.60;99.90;;;;;;4911832;29;20778;-88
2022/01/29 00:14:05;;;;;;;0.40;0.40;;;-1.60;99.90;;;;;;4913068;29;20408;-87
2022/01/29 00:16:34;;;;;;;0.45;0.38;;;-1.60;99.90;;;;;;4927719;29;20454;-89
2022/01/29 00:19:02;;;;;;;0.60;0.40;;;-1.60;99.90;;;;;;4908559;29;20414;-88
2022/01/29 00:21:30;;;;;;;1.10;0.40;;;-1.60;99.90;;;;;;4974234;28;20428;-88
2022/01/29 00:23:57;;;;;;;0.47;0.40;;;-1.60;99.90;;;;;;4974639;28;20406;-89
2022/01/29 00:26:27;;;;;;;1.23;0.40;;;-1.70;99.90;;;;;;4982002;28;20411;-87
2022/01/29 00:28:56;;;;;;;1.10;0.40;;;-1.70;99.90;;;;;;4931050;29;20418;-89
2022/01/29 00:31:24;;;;;;;1.27;0.50;;;-1.70;99.90;;;;;;4930921;29;20473;-88
2022/01/29 00:33:52;;;;;;;0.55;0.40;;;-1.60;99.90;;;;;;4916104;29;20395;-87
2022/01/29 00:36:19;;;;;;;1.05;0.50;;;-1.70;99.90;;;;;;4930856;29;20490;-87
2022/01/29 00:38:47;;;;;;;0.75;0.50;;;-1.70;99.90;;;;;;4930725;29;20435;-89
2022/01/29 00:41:14;;;;;;;1.02;0.50;;;-1.70;99.90;;;;;;4930285;29;20454;-88
2022/01/29 00:43:42;;;;;;;1.58;0.50;;;-1.60;99.90;;;;;;4930440;29;20422;-87
2022/01/29 00:46:09;;;;;;;0.50;0.40;;;-1.70;99.90;;;;;;4914802;29;20506;-88
2022/01/29 00:48:37;;;;;;;0.83;0.50;;;-1.70;99.90;;;;;;4915932;29;20396;-89
2022/01/29 00:51:05;;;;;;;0.45;0.40;;;-1.70;99.90;;;;;;4915143;28;20824;-88
2022/01/29 00:53:32;;;;;;;1.20;0.50;;;-1.70;99.90;;;;;;4914640;29;20430;-88
2022/01/29 00:56:05;;;;;;;0.70;0.50;;;-1.70;99.90;;;;;;4914600;29;20403;-88
2022/01/29 00:58:34;;;;;;;0.88;0.47;;;-1.80;99.90;;;;;;4930508;29;20491;-86
2022/01/29 01:01:01;;;;;;;1.27;0.50;;;-1.80;99.90;;;;;;4898905;28;20400;-87
2022/01/29 01:03:29;;;;;;;0.63;0.32;;;-1.80;99.90;;;;;;4914664;29;20437;-88
2022/01/29 01:05:56;;;;;;;0.63;0.40;;;-1.90;99.90;;;;;;4914401;29;20422;-88
2022/01/29 01:08:24;;;;;;;0.40;0.30;;;-1.80;99.90;;;;;;4914867;29;20925;-89
2022/01/29 01:10:51;;;;;;;0.98;0.40;;;-1.90;99.90;;;;;;4915706;29;20579;-87
2022/01/29 01:13:19;;;;;;;0.32;0.30;;;-1.80;99.90;;;;;;4914337;29;20443;-88
2022/01/29 01:15:46;;;;;;;0.75;0.40;;;-1.90;99.90;;;;;;4914479;29;20438;-88
2022/01/29 01:18:14;;;;;;;1.48;0.50;;;-1.90;99.90;;;;;;4914299;29;20396;-87
2022/01/29 01:20:41;;;;;;;1.10;0.40;;;-1.90;99.90;;;;;;4914606;29;20395;-86
2022/01/29 01:23:09;;;;;;;0.60;0.30;;;-1.90;99.90;;;;;;4914563;28;20494;-88
2022/01/29 01:25:36;;;;;;;0.43;0.30;;;-1.90;99.90;;;;;;4914011;29;20400;-88
2022/01/29 01:28:04;;;;;;;0.30;0.20;;;-1.90;99.90;;;;;;4898687;28;20439;-88
2022/01/29 01:30:34;;;;;;;0.30;0.25;;;-1.80;99.90;;;;;;4930195;29;20414;-88
2022/01/29 01:33:02;;;;;;;0.52;0.40;;;-1.80;99.90;;;;;;4929881;29;20400;-87
2022/01/29 01:35:36;;;;;;;1.42;0.40;;;-1.90;99.90;;;;;;4929517;29;20407;-88
2022/01/29 01:38:18;;;;;;;0.25;0.22;;;-1.90;99.90;;;;;;4915292;29;20396;-87
2022/01/29 01:40:51;;;;;;;0.80;0.30;;;-1.90;99.90;;;;;;4929611;29;20408;-86
2022/01/29 01:43:19;;;;;;;0.98;0.25;;;-1.90;99.90;;;;;;4928459;29;20801;-87
2022/01/29 01:45:47;;;;;;;1.05;0.30;;;-2.00;99.90;;;;;;4898405;28;20412;-87
2022/01/29 01:48:14;;;;;;;0.50;0.30;;;-1.90;99.90;;;;;;4914252;29;20403;-87
2022/01/29 01:50:42;;;;;;;1.02;0.20;;;-1.90;99.90;;;;;;4915409;29;20724;-87
2022/01/29 01:53:10;;;;;;;1.15;0.20;;;-2.00;99.90;;;;;;4914168;29;20487;-87
2022/01/29 01:55:38;;;;;;;0.20;0.15;;;-2.00;99.90;;;;;;4898257;29;20396;-88
2022/01/29 01:58:05;;;;;;;0.40;0.20;;;-2.00;99.90;;;;;;4914940;29;20404;-87
2022/01/29 02:00:34;;;;;;;0.45;0.20;;;-2.00;99.90;;;;;;4906157;29;20416;-87
2022/01/29 02:03:01;;;;;;;0.20;0.20;;;-2.10;99.90;;;;;;4894881;29;20420;-89
2022/01/29 02:05:29;;;;;;;0.22;0.10;;;-2.10;99.90;;;;;;4896382;29;20401;-88
2022/01/29 02:07:58;;;;;;;0.30;0.20;;;-2.20;99.90;;;;;;4894612;29;20996;-89
2022/01/29 02:10:27;;;;;;;0.70;0.10;;;-2.20;99.90;;;;;;4879240;28;20408;-87
2022/01/29 02:12:58;;;;;;;0.40;0.20;;;-2.20;99.90;;;;;;4879328;29;20450;-89
2022/01/29 02:15:26;;;;;;;0.80;0.13;;;-2.30;99.90;;;;;;4894915;29;20394;-88
2022/01/29 02:17:53;;;;;;;0.20;0.20;;;-2.40;99.90;;;;;;4895759;29;20439;-87
2022/01/29 02:20:23;;;;;;;1.50;0.20;;;-2.40;99.90;;;;;;4895091;28;20441;-87
2022/01/29 02:22:51;;;;;;;0.80;0.30;;;-2.40;99.90;;;;;;4896350;29;20888;-88
2022/01/29 02:25:29;;;;;;;0.28;0.20;;;-2.40;99.90;;;;;;4897826;29;20415;-87
2022/01/29 02:28:00;;;;;;;1.30;0.20;;;-2.40;99.90;;;;;;4913257;29;20420;-87
2022/01/29 02:30:30;;;;;;;2.17;0.30;;;-2.30;99.90;;;;;;4898046;28;20772;-87
2022/01/29 02:32:59;;;;;;;0.40;0.20;;;-2.40;99.90;;;;;;4897832;29;20499;-87
2022/01/29 02:35:27;;;;;;;0.77;0.20;;;-2.40;99.90;;;;;;4913642;29;20474;-89
2022/01/29 02:37:56;;;;;;;0.60;0.10;;;-2.40;99.90;;;;;;4913598;29;20892;-89
2022/01/29 02:40:24;;;;;;;0.97;0.30;;;-2.40;99.90;;;;;;4913168;29;20415;-88
2022/01/29 02:42:56;;;;;;;1.40;0.32;;;-2.40;99.90;;;;;;4914227;29;20404;-88
2022/01/29 02:45:26;;;;;;;2.22;0.28;;;-2.40;99.90;;;;;;4929443;29;20495;-87
2022/01/29 02:47:54;;;;;;;0.57;0.30;;;-2.30;99.90;;;;;;4913194;29;20420;-87
2022/01/29 02:50:21;;;;;;;2.17;0.80;;;-2.20;99.90;;;;;;4913205;29;20953;-89
2022/01/29 02:52:49;;;;;;;1.00;0.30;;;-2.20;99.90;;;;;;4913562;28;20458;-89
2022/01/29 02:55:16;;;;;;;1.10;0.20;;;-2.30;99.90;;;;;;4897271;29;20486;-88
2022/01/29 02:57:43;;;;;;;0.30;0.30;;;-2.30;99.90;;;;;;4913100;29;20427;-88
2022/01/29 03:00:12;;;;;;;0.30;0.20;;;-2.30;99.90;;;;;;4912943;29;20494;-89
2022/01/29 03:02:39;;;;;;;0.35;0.30;;;-2.30;99.90;;;;;;4913366;29;20435;-89
2022/01/29 03:05:07;;;;;;;2.53;0.40;;;-2.30;99.90;;;;;;4913189;29;20395;-88
2022/01/29 03:07:35;;;;;;;0.50;0.30;;;-2.30;99.90;;;;;;4928373;29;20422;-89
2022/01/29 03:10:03;;;;;;;0.90;0.20;;;-2.30;99.90;;;;;;4913797;29;20495;-88
2022/01/29 03:12:30;;;;;;;1.17;0.40;;;-2.30;99.90;;;;;;4913061;29;20423;-89
2022/01/29 03:14:58;;;;;;;0.60;0.32;;;-2.30;99.90;;;;;;4897040;29;20403;-88
2022/01/29 03:17:25;;;;;;;1.00;0.40;;;-2.30;99.90;;;;;;4912699;28;20423;-88
2022/01/29 03:19:53;;;;;;;0.80;0.30;;;-2.30;99.90;;;;;;4913705;29;20400;-89
2022/01/29 03:22:21;;;;;;;2.00;0.30;;;-2.40;99.90;;;;;;4912691;29;20400;-88
2022/01/29 03:24:48;;;;;;;1.17;0.40;;;-2.40;99.90;;;;;;4896986;29;20822;-89
2022/01/29 03:27:16;;;;;;;1.20;0.40;;;-2.40;99.90;;;;;;4912460;29;20419;-89
2022/01/29 03:29:43;;;;;;;0.70;0.40;;;-2.50;99.90;;;;;;4912963;29;20966;-88
2022/01/29 03:32:11;;;;;;;0.70;0.30;;;-2.40;99.90;;;;;;4913576;29;20428;-88
2022/01/29 03:34:39;;;;;;;2.05;0.40;;;-2.50;99.90;;;;;;4912556;29;20430;-88
2022/01/29 03:37:06;;;;;;;0.50;0.40;;;-2.50;99.90;;;;;;4912583;29;20885;-89
2022/01/29 03:39:35;;;;;;;0.47;0.30;;;-2.50;99.90;;;;;;4913344;29;20400;-88
2022/01/29 03:42:07;;;;;;;0.63;0.40;;;-2.50;99.90;;;;;;4913780;29;21001;-88
2022/01/29 03:44:34;;;;;;;0.70;0.40;;;-2.50;99.90;;;;;;4912266;29;20435;-89
2022/01/29 03:47:02;;;;;;;0.40;0.30;;;-2.50;99.90;;;;;;4896679;28;20837;-88
2022/01/29 03:49:30;;;;;;;1.13;0.47;;;-2.50;99.90;;;;;;4927875;29;20490;-87
2022/01/29 03:52:00;;;;;;;0.55;0.40;;;-2.40;99.90;;;;;;4913672;29;20404;-88
2022/01/29 03:54:28;;;;;;;0.55;0.30;;;-2.40;99.90;;;;;;4896765;29;20450;-88
2022/01/29 03:56:55;;;;;;;0.93;0.40;;;-2.40;99.90;;;;;;4912050;28;20417;-87
2022/01/29 03:59:23;;;;;;;1.20;0.40;;;-2.40;99.90;;;;;;4911683;29;20411;-89
2022/01/29 04:01:50;;;;;;;2.00;0.40;;;-2.30;99.90;;;;;;4900996;28;20454;-87
2022/01/29 04:04:18;;;;;;;1.00;0.50;;;-2.20;99.90;;;;;;4913115;29;20882;-88
2022/01/29 04:06:45;;;;;;;0.70;0.38;;;-2.20;99.90;;;;;;4896442;28;20465;-88
2022/01/29 04:09:13;;;;;;;0.68;0.45;;;-2.40;99.90;;;;;;4896499;29;20406;-88
2022/01/29 04:11:41;;;;;;;0.43;0.40;;;-2.40;99.90;;;;;;4912266;29;20401;-89
2022/01/29 04:14:15;;;;;;;0.95;0.30;;;-2.50;99.90;;;;;;4928070;29;20801;-89
2022/01/29 04:16:44;;;;;;;1.10;0.47;;;-2.40;99.90;;;;;;4911876;29;20419;-89
2022/01/29 04:19:12;;;;;;;1.13;0.50;;;-2.40;99.90;;;;;;4911855;29;20399;-88
2022/01/29 04:21:41;;;;;;;0.60;0.40;;;-2.50;99.90;;;;;;4907548;29;20413;-87
2022/01/29 04:24:09;;;;;;;0.95;0.50;;;-2.50;99.90;;;;;;4908534;28;20408;-89
2022/01/29 04:26:36;;;;;;;0.47;0.30;;;-2.50;99.90;;;;;;4908955;28;20413;-89
2022/01/29 04:29:07;;;;;;;1.27;0.47;;;-2.50;99.90;;;;;;4894004;29;20432;-89
2022/01/29 04:31:59;;;;;;;0.43;0.40;;;-2.50;99.90;;;;;;4908571;28;20420;-89
2022/01/29 04:34:23;;;;;;;1.55;0.50;;;-2.50;99.90;;;;;;4892688;28;20398;-87
2022/01/29 04:36:51;;;;;;;2.05;0.50;;;-2.50;99.90;;;;;;4909959;29;20501;-89
2022/01/29 04:39:24;;;;;;;1.30;0.50;;;-2.50;99.90;;;;;;4926471;28;20408;-88
2022/01/29 04:41:52;;;;;;;1.00;0.50;;;-2.30;99.90;;;;;;4927579;29;20449;-87
2022/01/29 04:44:19;;;;;;;0.52;0.50;;;-2.30;99.90;;;;;;4927668;29;20412;-88
2022/01/29 04:46:46;;;;;;;1.40;0.50;;;-2.40;99.90;;;;;;4927287;29;20439;-87
2022/01/29 04:49:14;;;;;;;0.87;0.50;;;-2.40;99.90;;;;;;4912598;29;20400;-89
2022/01/29 04:51:41;;;;;;;0.85;0.50;;;-2.30;99.90;;;;;;4911884;28;20424;-88
2022/01/29 04:54:09;;;;;;;2.45;0.50;;;-2.20;99.90;;;;;;4911434;29;20418;-90
2022/01/29 04:56:36;;;;;;;1.37;0.60;;;-2.30;99.90;;;;;;4926988;29;20403;-90
2022/01/29 04:59:04;;;;;;;2.15;0.50;;;-2.40;99.90;;;;;;4895722;28;20411;-89
2022/01/29 05:01:31;;;;;;;0.82;0.40;;;-2.50;99.90;;;;;;4927349;29;20417;-89
2022/01/29 05:03:59;;;;;;;2.30;0.50;;;-2.40;99.90;;;;;;4926889;29;20566;-88
2022/01/29 05:06:27;;;;;;;1.23;0.60;;;-2.50;99.90;;;;;;4911689;28;20440;-88
2022/01/29 05:08:54;;;;;;;0.93;0.50;;;-2.50;99.90;;;;;;4895633;28;20914;-88
2022/01/29 05:11:23;;;;;;;0.82;0.40;;;-2.50;99.90;;;;;;4927928;29;20427;-88
2022/01/29 05:13:51;;;;;;;1.02;0.50;;;-2.50;99.90;;;;;;4930224;29;20415;-89
2022/01/29 05:27:22;;;;;;;1.35;0.50;;;-2.50;99.90;;;;;;4915352;29;20466;-89
2022/01/29 05:29:49;;;;;;;0.95;0.45;;;-2.40;99.90;;;;;;4929944;29;20408;-89
2022/01/29 05:32:17;;;;;;;1.73;0.60;;;-2.40;99.90;;;;;;4915294;29;20404;-88
2022/01/29 05:34:44;;;;;;;0.85;0.40;;;-2.40;99.90;;;;;;4915637;29;20396;-88
2022/01/29 05:37:33;;;;;;;1.27;0.40;;;-2.50;99.90;;;;;;4929930;29;20411;-88
2022/01/29 05:40:00;;;;;;;1.27;0.40;;;-2.50;99.90;;;;;;4926275;29;20426;-89
2022/01/29 05:42:28;;;;;;;2.25;0.60;;;-2.50;99.90;;;;;;4914000;28;20470;-88
2022/01/29 05:44:55;;;;;;;1.08;0.40;;;-2.50;99.90;;;;;;4929803;29;20416;-87
2022/01/29 05:47:23;;;;;;;0.70;0.35;;;-2.50;99.90;;;;;;4914322;29;20420;-88
2022/01/29 05:49:50;;;;;;;1.52;0.50;;;-2.70;99.90;;;;;;4928787;29;20419;-87
2022/01/29 05:52:17;;;;;;;1.30;0.50;;;-2.80;99.90;;;;;;4914095;28;20396;-88
2022/01/29 05:54:45;;;;;;;3.22;0.60;;;-2.90;99.90;;;;;;4930099;29;20450;-87
2022/01/29 05:57:12;;;;;;;1.27;0.50;;;-3.10;99.90;;;;;;4906737;28;20416;-88
2022/01/29 05:59:40;;;;;;;1.25;0.40;;;-3.00;99.90;;;;;;4897040;29;20405;-87
2022/01/29 06:02:07;;;;;;;1.48;0.60;;;-2.90;99.90;;;;;;4898194;28;20422;-86
2022/01/29 06:04:35;;;;;;;1.77;0.50;;;-2.90;99.90;;;;;;4913744;29;20395;-88
2022/01/29 06:07:03;;;;;;;3.47;0.52;;;-2.90;99.90;;;;;;4914692;29;20412;-88
2022/01/29 06:09:30;;;;;;;2.53;0.80;;;-2.70;99.90;;;;;;4914856;29;20392;-90
2022/01/29 06:11:58;;;;;;;2.28;0.57;;;-2.70;99.90;;;;;;4913524;29;20471;-87
2022/01/29 06:14:25;;;;;;;3.92;0.80;;;-2.70;99.90;;;;;;4913894;29;20396;-87
2022/01/29 06:16:53;;;;;;;1.40;0.50;;;-2.80;99.90;;;;;;4914736;29;20399;-89
2022/01/29 06:19:20;;;;;;;1.83;0.50;;;-2.70;99.90;;;;;;4913868;29;20479;-89
2022/01/29 06:21:48;;;;;;;2.83;0.63;;;-2.70;99.90;;;;;;4913310;29;20450;-89
2022/01/29 06:24:15;;;;;;;2.27;0.60;;;-2.90;99.90;;;;;;4897836;29;20467;-89
2022/01/29 06:26:43;;;;;;;2.50;0.50;;;-2.90;99.90;;;;;;4908602;28;20500;-87
2022/01/29 06:29:10;;;;;;;1.90;0.57;;;-3.00;99.90;;;;;;4914491;29;20896;-88
2022/01/29 06:31:38;;;;;;;1.85;0.70;;;-2.90;99.90;;;;;;4911542;29;20894;-86
2022/01/29 06:34:05;;;;;;;3.10;0.60;;;-2.90;99.90;;;;;;4908814;29;20408;-88
2022/01/29 06:36:33;;;;;;;1.08;0.50;;;-2.90;99.90;;;;;;4912257;29;20439;-88
2022/01/29 06:39:00;;;;;;;2.00;0.90;;;-2.90;99.90;;;;;;4897560;28;20396;-88
2022/01/29 06:41:27;;;;;;;1.93;0.70;;;-3.00;99.90;;;;;;4913150;29;20483;-89
2022/01/29 06:43:55;;;;;;;2.20;0.70;;;-3.00;99.90;;;;;;4913353;29;20408;-88
2022/01/29 06:46:23;;;;;;;1.80;0.60;;;-3.00;99.90;;;;;;4928736;29;20494;-88
2022/01/29 06:48:50;;;;;;;2.00;0.70;;;-3.00;99.90;;;;;;4913248;29;20455;-88
2022/01/29 06:51:18;;;;;;;2.90;0.77;;;-3.00;99.90;;;;;;4928760;29;20482;-89
2022/01/29 06:53:46;;;;;;;2.08;0.70;;;-3.10;99.90;;;;;;4913263;29;20461;-86
2022/01/29 06:56:13;;;;;;;1.40;0.65;;;-3.20;99.90;;;;;;4913805;29;20403;-87
2022/01/29 06:58:41;;;;;;;3.53;0.80;;;-3.00;99.90;;;;;;4912902;29;20438;-88
2022/01/29 07:01:28;;;;;;;3.60;0.80;;;-3.00;99.90;;;;;;4913658;29;20412;-87
2022/01/29 07:03:56;;;;;;;1.52;0.63;;;-3.00;99.90;;;;;;4912226;29;20468;-88
2022/01/29 07:06:23;;;;;;;3.67;0.90;;;-3.00;99.90;;;;;;4905111;29;20405;-87
2022/01/29 07:08:51;;;;;;;1.67;0.70;;;-3.10;99.90;;;;;;4894038;29;20409;-88
2022/01/29 07:11:21;;;;;;;3.10;0.70;;;-3.00;99.90;;;;;;4894308;28;20447;-88
2022/01/29 07:13:51;;;;;;;2.83;0.80;;;-3.00;99.90;;;;;;4893973;29;20416;-88
2022/01/29 07:16:19;;;;;;;1.63;0.70;;;-3.10;99.90;;;;;;4899968;29;20766;-89
2022/01/29 07:18:46;;;;;;;2.65;0.70;;;-3.10;99.90;;;;;;4909411;29;20776;-87
2022/01/29 07:21:14;;;;;;;4.72;0.80;;;-3.20;99.90;;;;;;4895264;29;20397;-89
2022/01/29 07:23:41;;;;;;;3.03;0.80;;;-3.20;99.90;;;;;;4893714;28;20404;-87
2022/01/29 07:26:09;;;;;;;2.28;0.80;;;-3.30;99.90;;;;;;4895050;29;20405;-88
2022/01/29 07:28:36;;;;;;;2.83;0.83;;;-3.30;99.90;;;;;;4898256;29;20412;-88
2022/01/29 07:31:04;;;;;;;2.67;0.80;;;-3.30;99.90;;;;;;4906976;29;20412;-87
2022/01/29 07:33:32;;;;;;;1.73;0.82;;;-3.30;99.90;;;;;;4910028;29;20409;-88
2022/01/29 07:36:00;;;;;;;5.38;1.13;;;-3.40;99.90;;;;;;4909082;29;20405;-87
2022/01/29 07:38:28;;;;;;;3.33;0.80;;;-3.40;99.90;;;;;;4909142;29;20468;-87
2022/01/29 07:40:56;;;;;;;2.92;0.70;;;-3.40;99.90;;;;;;4893633;28;20496;-87
2022/01/29 07:43:23;;;;;;;2.25;0.70;;;-3.70;99.90;;;;;;4894872;29;20403;-88
2022/01/29 07:45:51;;;;;;;2.00;0.63;;;-3.70;99.90;;;;;;4909105;28;20408;-87
2022/01/29 07:48:19;;;;;;;2.40;0.60;;;-3.70;99.90;;;;;;4932511;28;20856;-86
2022/01/29 07:50:46;;;;;;;2.20;0.65;;;-3.80;99.90;;;;;;4908547;29;20399;-88
2022/01/29 07:53:13;;;;;;;1.25;0.65;;;-3.80;99.90;;;;;;4904674;29;20418;-87
2022/01/29 07:55:41;;;;;;;2.42;0.80;;;-3.70;99.90;;;;;;4894188;29;20398;-87
2022/01/29 07:58:10;;;;;;;2.80;0.70;;;-3.60;99.90;;;;;;4908895;29;20417;-88
2022/01/29 08:00:38;;;;;;;3.63;0.90;;;-3.70;99.90;;;;;;4893615;28;20849;-88
2022/01/29 08:03:05;;;;;;;1.95;0.90;;;-3.70;99.90;;;;;;4894374;29;20393;-87
2022/01/29 08:05:35;;;;;;;2.58;0.75;;;-3.70;99.90;;;;;;4884422;29;20494;-88
2022/01/29 08:08:02;;;;;;;2.50;0.80;;;-3.70;99.90;;;;;;4912281;29;20510;-87
2022/01/29 08:10:30;;;;;;;2.25;0.90;;;-3.80;99.90;;;;;;4912407;29;20400;-86
2022/01/29 08:12:58;;;;;;;3.13;0.80;;;-3.80;99.90;;;;;;4928063;29;20403;-87
2022/01/29 08:15:26;;;;;;;2.28;0.77;;;-3.80;99.90;;;;;;4911843;28;20490;-87
2022/01/29 08:17:53;;;;;;;2.92;0.82;;;-3.80;99.90;;;;;;4927903;28;20404;-87
2022/01/29 08:20:21;;;;;;;2.58;0.80;;;-3.80;99.90;;;;;;4926899;29;20419;-88
2022/01/29 08:22:49;;;;;;;2.67;0.90;;;-3.80;99.90;;;;;;4926441;29;20407;-87
2022/01/29 08:25:17;;;;;;;4.15;0.75;;;-3.80;99.90;;;;;;4904103;29;20463;-87
2022/01/29 08:27:44;;;;;;;3.15;0.98;;;-3.70;99.90;;;;;;4904541;28;20426;-88
2022/01/29 08:30:12;;;;;;;3.50;1.20;;;-3.70;99.90;;;;;;4904302;29;20405;-88
2022/01/29 08:32:43;;;;;;;4.82;1.02;;;-3.80;99.90;;;;;;4906617;29;20400;-88
2022/01/29 08:35:14;;;;;;;2.47;0.93;;;-3.70;99.90;;;;;;4910096;29;20400;-88
2022/01/29 08:37:42;;;;;;;3.83;1.10;;;-3.80;99.90;;;;;;4919000;29;20416;-87
2022/01/29 08:40:11;;;;;;;3.92;0.70;;;-3.70;99.90;;;;;;4913257;29;20412;-87
2022/01/29 08:42:41;;;;;;;3.17;1.00;;;-3.70;99.90;;;;;;4930562;29;20411;-88
2022/01/29 08:45:09;;;;;;;3.58;0.93;;;-3.60;99.90;;;;;;4923281;29;20494;-87
2022/01/29 08:47:39;;;;;;;4.97;1.03;;;-3.60;99.90;;;;;;4898153;28;20454;-88
2022/01/29 08:50:08;;;;;;;3.45;1.15;;;-3.60;99.90;;;;;;4915785;29;20404;-87
2022/01/29 08:52:37;;;;;;;4.20;1.10;;;-3.60;99.90;;;;;;4899130;29;20748;-88
2022/01/29 08:55:08;;;;;;;3.00;0.90;;;-3.50;99.90;;;;;;4914064;29;20402;-88
2022/01/29 08:57:36;;;;;;;4.18;1.10;;;-3.50;99.90;;;;;;4915885;29;20399;-88
2022/01/29 09:00:07;;;;;;;5.30;1.73;;;-3.50;99.90;;;;;;4914719;29;20447;-88
2022/01/29 09:02:35;;;;;;;4.95;1.92;;;-3.50;99.90;;;;;;4913620;29;20412;-89
2022/01/29 09:05:04;;;;;;;5.07;1.75;;;-3.40;99.90;;;;;;4911225;28;20423;-87
2022/01/29 09:07:32;;;;;;;5.78;1.90;;;-3.40;99.90;;;;;;4906182;29;20416;-87
2022/01/29 09:09:59;;;;;;;6.65;2.60;;;-3.50;99.90;;;;;;4898601;29;20417;-86
2022/01/29 09:12:27;;;;;;;9.30;2.60;;;-3.50;99.90;;;;;;4933598;29;20845;-87
2022/01/29 09:14:55;;;;;;;8.75;2.90;;;-3.40;99.90;;;;;;4912716;29;20407;-87
2022/01/29 09:17:22;;;;;;;7.57;2.50;;;-3.40;99.90;;;;;;4914867;29;20454;-86
2022/01/29 09:19:50;;;;;;;8.90;2.97;;;-3.30;99.90;;;;;;4911200;29;20409;-87
2022/01/29 09:22:18;;;;;;;8.10;2.67;;;-3.30;99.90;;;;;;4885878;28;20458;-88
2022/01/29 09:24:45;;;;;;;8.13;2.95;;;-3.30;99.90;;;;;;4899026;28;20598;-87
2022/01/29 09:27:13;;;;;;;7.72;3.20;;;-3.20;99.90;;;;;;4929598;29;20495;-89
2022/01/29 09:29:41;;;;;;;8.15;3.53;;;-3.20;99.90;;;;;;4915190;29;20482;-88
2022/01/29 09:32:10;;;;;;;7.57;3.10;;;-3.20;99.90;;;;;;4913379;29;20499;-87
2022/01/29 09:34:38;;;;;;;9.30;3.72;;;-3.10;99.90;;;;;;4913459;29;20423;-86
2022/01/29 09:37:05;;;;;;;9.07;2.90;;;-3.00;99.90;;;;;;4914588;29;20736;-86
2022/01/29 09:39:33;;;;;;;6.88;1.83;;;-3.00;99.90;;;;;;4903174;29;20413;-89
2022/01/29 09:42:01;;;;;;;3.90;1.67;;;-3.00;99.90;;;;;;4911928;28;20416;-87
2022/01/29 09:44:30;;;;;;;6.10;1.52;;;-2.90;99.90;;;;;;4918267;29;20485;-86
2022/01/29 09:46:58;;;;;;;17.27;7.38;;;-2.80;99.90;;;;;;4913757;28;20417;-87
2022/01/29 09:49:29;;;;;;;5.97;1.55;;;-2.80;99.90;;;;;;4914914;29;20487;-86
2022/01/29 09:51:57;;;;;;;6.22;2.00;;;-2.70;99.90;;;;;;4913733;29;20404;-88
2022/01/29 09:54:24;;;;;;;7.43;2.33;;;-2.60;99.90;;;;;;4898538;28;20442;-86
2022/01/29 09:56:52;;;;;;;6.28;2.20;;;-2.70;99.90;;;;;;4912953;29;20424;-88
2022/01/29 09:59:20;;;;;;;9.05;2.67;;;-2.60;99.90;;;;;;4911914;29;20506;-87
2022/01/29 10:01:47;;;;;;;5.50;2.60;;;-2.50;99.90;;;;;;4924236;29;20964;-88
2022/01/29 10:04:15;;;;;;;6.28;2.47;;;-2.40;99.90;;;;;;4911530;29;20441;-88
2022/01/29 10:06:44;;;;;;;5.03;2.42;;;-2.30;99.90;;;;;;4910282;29;20500;-89
2022/01/29 10:09:31;;;;;;;7.45;2.60;;;-2.20;99.90;;;;;;4879141;29;20425;-87
2022/01/29 10:12:19;;;;;;;7.23;2.40;;;-2.20;99.90;;;;;;4894650;29;20769;-88
2022/01/29 10:15:07;;;;;;;6.10;2.50;;;-2.20;99.90;;;;;;4911043;29;20759;-86
2022/01/29 10:17:48;;;;;;;5.75;2.42;;;-2.20;99.90;;;;;;4913699;29;20404;-88
2022/01/29 10:20:22;;;;;;;7.82;2.90;;;-2.20;99.90;;;;;;4913144;29;20498;-86
2022/01/29 10:22:58;;;;;;;5.25;2.20;;;-2.10;99.90;;;;;;4897933;29;20408;-86
2022/01/29 10:25:36;;;;;;;5.35;1.60;;;-2.00;99.90;;;;;;4913443;29;20455;-86
2022/01/29 10:28:16;;;;;;;5.07;1.73;;;-2.00;99.90;;;;;;4897726;29;20431;-86
2022/01/29 10:30:49;;;;;;;5.40;1.38;;;-1.90;99.90;;;;;;4897395;29;20910;-85
2022/01/29 10:33:22;;;;;;;6.97;1.40;;;-1.80;99.90;;;;;;4913171;28;20487;-86
2022/01/29 10:35:52;;;;;;;5.80;1.77;;;-1.60;99.90;;;;;;4914219;29;20499;-85
2022/01/29 10:38:23;;;;;;;4.57;1.42;;;-1.60;99.90;;;;;;4901175;29;20483;-87
2022/01/29 10:41:17;;;;;;;4.88;1.50;;;-1.60;99.90;;;;;;4894240;29;20432;-86
2022/01/29 10:44:13;;;;;;;6.35;1.90;;;-1.60;99.90;;;;;;4888388;28;20403;-88
2022/01/29 10:46:43;;;;;;;6.35;1.80;;;-1.60;99.90;;;;;;4895527;28;20398;-88
2022/01/29 10:49:32;;;;;;;7.10;2.30;;;-1.60;99.90;;;;;;4891718;28;20422;-87
2022/01/29 10:52:00;;;;;;;7.47;2.33;;;-1.60;99.90;;;;;;4897653;29;20938;-86
2022/01/29 10:54:29;;;;;;;6.15;2.35;;;-1.60;99.90;;;;;;4913912;29;20495;-86
2022/01/29 10:57:04;;;;;;;5.38;1.90;;;-1.50;99.90;;;;;;4913890;29;20483;-86
2022/01/29 10:59:35;;;;;;;6.28;1.58;;;-1.50;99.90;;;;;;4914393;29;20414;-86
2022/01/29 11:02:06;;;;;;;5.80;1.60;;;-1.50;99.90;;;;;;4912890;29;20442;-86
2022/01/29 11:04:36;;;;;;;6.13;1.40;;;-1.50;99.90;;;;;;4911741;28;20411;-87
2022/01/29 11:07:10;;;;;;;5.70;1.40;;;-1.40;99.90;;;;;;4903020;29;20409;-86
2022/01/29 11:09:44;;;;;;;6.18;1.98;;;-1.30;99.90;;;;;;4901689;29;20466;-87
2022/01/29 11:12:21;;;;;;;5.55;1.30;;;-1.30;99.90;;;;;;4913298;28;20410;-88
2022/01/29 11:14:52;;;;;;;5.78;1.30;;;-1.30;99.90;;;;;;4914399;29;20411;-86
2022/01/29 11:17:20;;;;;;;6.65;1.60;;;-1.30;99.90;;;;;;4896949;29;20422;-89
2022/01/29 11:19:47;;;;;;;5.53;1.63;;;-1.30;99.90;;;;;;4897039;29;20442;-89
2022/01/29 11:22:21;;;;;;;6.38;1.35;;;-1.30;99.90;;;;;;4913263;29;20676;-89
2022/01/29 11:25:00;;;;;;;7.18;1.50;;;-1.30;99.90;;;;;;4912196;28;20712;-89
2022/01/29 11:27:32;;;;;;;5.80;1.50;;;-1.30;99.90;;;;;;4909156;29;20412;-88
2022/01/29 11:30:09;;;;;;;5.97;1.30;;;-1.30;99.90;;;;;;4893535;29;20413;-86
2022/01/29 11:32:40;;;;;;;4.43;1.30;;;-1.30;99.90;;;;;;4893607;29;20397;-87
2022/01/29 11:35:17;;;;;;;6.18;1.83;;;-1.30;99.90;;;;;;4893448;28;20429;-87
2022/01/29 11:37:54;;;;;;;6.47;1.50;;;-1.30;99.90;;;;;;4894720;29;20424;-86
2022/01/29 11:40:32;;;;;;;6.18;1.40;;;-1.30;99.90;;;;;;4877182;28;20461;-85
2022/01/29 11:43:30;;;;;;;4.13;1.02;;;-1.40;99.90;;;;;;4893298;29;20507;-86
2022/01/29 11:46:15;;;;;;;6.45;1.48;;;-1.40;99.90;;;;;;4893134;29;20421;-87
2022/01/29 11:48:52;;;;;;;5.38;1.10;;;-1.40;99.90;;;;;;4893793;29;20468;-87
2022/01/29 11:51:42;;;;;;;7.50;1.50;;;-1.40;99.90;;;;;;4906034;28;20468;-85
2022/01/29 11:54:15;;;;;;;7.43;1.27;;;-1.40;99.90;;;;;;4927058;29;20396;-85
2022/01/29 11:56:46;;;;;;;4.93;1.20;;;-1.40;99.90;;;;;;4909634;28;20450;-86
2022/01/29 11:59:20;;;;;;;4.60;1.50;;;-1.30;99.90;;;;;;4918518;29;20529;-86
2022/01/29 12:02:09;;;;;;;4.43;1.10;;;-1.40;99.90;;;;;;4909572;29;20439;-86
2022/01/29 12:04:49;;;;;;;5.95;1.17;;;-1.40;99.90;;;;;;4908392;28;20487;-87
2022/01/29 12:09:58;;;;;;;6.07;1.30;;;-1.50;99.90;;;;;;4911373;29;20989;-87
2022/01/29 12:12:27;;;;;;;3.58;1.10;;;-1.50;99.90;;;;;;4911034;28;20918;-87
2022/01/29 12:14:56;;;;;;;4.47;1.02;;;-1.50;99.90;;;;;;4926388;29;20400;-86
2022/01/29 12:17:34;;;;;;;5.72;1.38;;;-1.50;99.90;;;;;;4916420;29;20412;-84
2022/01/29 12:20:05;;;;;;;7.07;1.48;;;-1.50;99.90;;;;;;4897101;29;20426;-87
2022/01/29 12:22:39;;;;;;;4.15;1.10;;;-1.50;99.90;;;;;;4909104;29;20421;-87
2022/01/29 12:25:12;;;;;;;6.35;1.48;;;-1.50;99.90;;;;;;4897916;29;20406;-87
2022/01/29 12:27:55;;;;;;;5.78;1.20;;;-1.50;99.90;;;;;;4896008;29;20757;-86
2022/01/29 12:30:26;;;;;;;5.30;1.40;;;-1.50;99.90;;;;;;4914033;29;20412;-87
2022/01/29 12:33:00;;;;;;;3.78;1.08;;;-1.50;99.90;;;;;;4907817;29;20412;-85
2022/01/29 12:35:33;;;;;;;5.72;0.93;;;-1.60;99.90;;;;;;4930593;29;20427;-88
2022/01/29 12:38:01;;;;;;;5.97;1.38;;;-1.60;99.90;;;;;;4929963;29;20392;-86
2022/01/29 12:40:38;;;;;;;4.85;1.25;;;-1.60;99.90;;;;;;4915278;29;20422;-86
2022/01/29 12:43:29;;;;;;;4.75;1.00;;;-1.60;99.90;;;;;;4915786;29;20450;-86
2022/01/29 12:46:24;;;;;;;3.97;1.02;;;-1.60;99.90;;;;;;4930031;29;20410;-87
2022/01/29 12:48:58;;;;;;;4.72;1.10;;;-1.60;99.90;;;;;;4933737;29;20406;-86
2022/01/29 12:51:26;;;;;;;4.43;1.02;;;-1.60;99.90;;;;;;4933856;29;20452;-86
2022/01/29 12:54:02;;;;;;;4.00;1.00;;;-1.60;99.90;;;;;;4933592;29;20390;-86
2022/01/29 12:56:35;;;;;;;8.02;1.50;;;-1.60;99.90;;;;;;4933578;29;20783;-86
2022/01/29 12:59:06;;;;;;;7.00;1.42;;;-1.60;99.90;;;;;;4924813;29;20412;-87
2022/01/29 13:01:34;;;;;;;5.60;1.40;;;-1.60;99.90;;;;;;4913128;29;20427;-85
2022/01/29 13:04:04;;;;;;;6.68;1.63;;;-1.70;99.90;;;;;;4930567;29;20454;-87
2022/01/29 13:06:33;;;;;;;8.55;1.30;;;-1.70;99.90;;;;;;4914498;28;20400;-85
2022/01/29 13:09:21;;;;;;;6.33;1.47;;;-1.70;99.90;;;;;;4929002;29;20794;-86
2022/01/29 13:11:58;;;;;;;5.32;1.38;;;-1.70;99.90;;;;;;4892877;28;20850;-86
2022/01/29 13:14:27;;;;;;;10.75;1.70;;;-1.70;99.90;;;;;;4897785;29;20418;-86
2022/01/29 13:16:57;;;;;;;5.45;1.45;;;-1.80;99.90;;;;;;4913664;29;20407;-86